Time;durP1;ratioP1;P1;durP2;ratioP2;P2;SDS_P1;SDS_P2;PMS_P1;PMS_P2;Temp;Humidity;BMP_temperature;BMP_pressure;BME280_temperature;BME280_humidity;BME280_pressure;Samples;Min_cycle;Max_cycle;Signal;HPM_P1;HPM_P2
2022/02/25 00:01:46;;;;;;;1999.90;999.90;;;;;;;10.39;53.77;165169.78;5057097;28;20149;-69
2022/02/25 00:04:13;;;;;;;1999.90;999.90;;;;;;;10.30;54.13;165144.97;5061655;28;20052;-69
2022/02/25 00:06:40;;;;;;;1999.90;999.90;;;;;;;10.24;54.27;165129.78;5055143;28;20282;-69
2022/02/25 00:09:07;;;;;;;1999.90;999.90;;;;;;;10.29;54.28;165142.22;5062736;28;20509;-69
2022/02/25 00:11:34;;;;;;;1999.90;999.90;;;;;;;9.31;56.58;164882.03;5064926;28;20051;-68
2022/02/25 00:14:00;;;;;;;1999.90;999.90;;;;;;;8.89;58.16;164769.25;5061691;28;20072;-68
2022/02/25 00:16:27;;;;;;;1999.90;999.90;;;;;;;8.79;59.08;164743.09;5059310;28;20071;-67
2022/02/25 00:18:53;;;;;;;1999.90;999.90;;;;;;;8.38;59.52;164633.03;5061587;28;20292;-68
2022/02/25 00:21:22;;;;;;;1999.90;999.90;;;;;;;8.10;59.92;164558.75;5057345;28;20052;-68
2022/02/25 00:23:49;;;;;;;1999.90;999.90;;;;;;;8.26;60.17;164601.41;5062752;28;20106;-68
2022/02/25 00:26:15;;;;;;;1999.90;999.90;;;;;;;8.26;59.84;164601.41;5059953;28;20091;-68
2022/02/25 00:28:41;;;;;;;1999.90;999.90;;;;;;;8.21;60.21;164586.25;5062695;28;20064;-68
2022/02/25 00:31:08;;;;;;;1999.90;999.90;;;;;;;8.17;60.76;164575.25;5059948;28;20056;-68
2022/02/25 00:33:34;;;;;;;1999.90;999.90;;;;;;;8.25;60.45;164598.63;5061808;28;20487;-68
2022/02/25 00:36:01;;;;;;;1999.90;999.90;;;;;;;8.68;59.44;164712.84;5056607;28;20099;-68
2022/02/25 00:38:28;;;;;;;1999.90;999.90;;;;;;;8.49;60.17;164661.94;5057286;28;20446;-68
2022/02/25 00:40:54;;;;;;;1999.90;999.90;;;;;;;8.22;60.43;164589.03;5046233;28;20053;-69
2022/02/25 00:43:21;;;;;;;1999.90;999.90;;;;;;;8.58;59.67;164686.69;5054173;28;20098;-68
2022/02/25 00:45:50;;;;;;;1999.90;999.90;;;;;;;8.16;61.27;164573.91;5055427;28;20073;-68
2022/02/25 00:48:17;;;;;;;1999.90;999.90;;;;;;;8.23;60.57;164593.16;5058845;28;20041;-68
2022/02/25 00:50:44;;;;;;;1999.90;999.90;;;;;;;8.71;59.39;164721.09;5063623;28;20110;-68
2022/02/25 00:53:10;;;;;;;1999.90;999.90;;;;;;;8.77;58.95;164737.59;5061455;28;20102;-68
2022/02/25 00:55:37;;;;;;;1999.90;999.90;;;;;;;8.52;59.50;164668.84;5056316;28;20497;-68
2022/02/25 00:58:04;;;;;;;1999.90;999.90;;;;;;;7.92;60.89;164509.28;5058398;28;20072;-69
2022/02/25 01:00:30;;;;;;;1999.90;999.90;;;;;;;8.10;60.98;164557.41;5063151;28;20041;-68
2022/02/25 01:02:57;;;;;;;1999.90;999.90;;;;;;;8.62;59.80;164696.34;5070310;28;20054;-68
2022/02/25 01:05:24;;;;;;;1999.90;999.90;;;;;;;8.99;58.50;164795.34;5055472;28;20088;-69
2022/02/25 01:07:50;;;;;;;1999.90;999.90;;;;;;;8.38;60.08;164631.63;5057176;28;20044;-68
2022/02/25 01:10:18;;;;;;;1999.90;999.90;;;;;;;7.72;61.81;164457.00;5057067;28;20080;-68
2022/02/25 01:12:46;;;;;;;1999.90;999.90;;;;;;;7.72;62.31;164455.66;5063693;28;20284;-68
2022/02/25 01:15:15;;;;;;;1999.90;999.90;;;;;;;7.22;63.26;164322.34;5056751;28;20045;-68
2022/02/25 01:17:42;;;;;;;1999.90;999.90;;;;;;;7.51;62.85;164400.66;5058754;28;20563;-68
2022/02/25 01:20:09;;;;;;;1999.90;999.90;;;;;;;7.67;63.07;164443.28;5062340;28;20453;-68
2022/02/25 01:22:37;;;;;;;1999.90;999.90;;;;;;;7.83;62.30;164485.91;5055045;28;20095;-68
2022/02/25 01:25:04;;;;;;;1999.90;999.90;;;;;;;7.45;63.05;164382.81;5060372;28;20075;-68
2022/02/25 01:27:31;;;;;;;1999.90;999.90;;;;;;;7.14;63.98;164300.34;5054990;28;20130;-68
2022/02/25 01:29:57;;;;;;;1999.90;999.90;;;;;;;7.12;63.93;164294.88;5054442;28;20114;-68
2022/02/25 01:32:24;;;;;;;1999.90;999.90;;;;;;;7.37;64.06;164363.56;5057337;28;20044;-68
2022/02/25 01:34:50;;;;;;;1999.90;999.90;;;;;;;7.47;63.19;164388.28;5056872;28;20069;-68
2022/02/25 01:37:17;;;;;;;1999.90;999.90;;;;;;;7.26;63.59;164331.97;5057609;28;20111;-68
2022/02/25 01:39:43;;;;;;;1999.90;999.90;;;;;;;7.28;63.83;164338.84;5063481;28;20076;-69
2022/02/25 01:42:09;;;;;;;1999.90;999.90;;;;;;;7.12;64.43;164294.88;5063428;28;20455;-68
2022/02/25 01:44:41;;;;;;;1999.90;999.90;;;;;;;6.81;65.20;164212.44;5057760;28;20469;-68
2022/02/25 01:47:11;;;;;;;1999.90;999.90;;;;;;;7.18;64.49;164312.72;5057275;28;20053;-68
2022/02/25 01:49:38;;;;;;;1999.90;999.90;;;;;;;7.12;64.12;164296.22;5064689;28;20048;-68
2022/02/25 01:52:10;;;;;;;1999.90;999.90;;;;;;;6.94;65.06;164246.78;5063637;28;20404;-68
2022/02/25 01:54:37;;;;;;;1999.90;999.90;;;;;;;7.07;64.77;164282.47;5066013;28;20076;-68
2022/02/25 01:57:04;;;;;;;1999.90;999.90;;;;;;;7.06;65.10;164279.75;5058075;28;20076;-68
2022/02/25 01:59:32;;;;;;;1999.90;999.90;;;;;;;6.99;64.82;164261.88;5060885;28;20069;-68
2022/02/25 02:01:58;;;;;;;1999.90;999.90;;;;;;;6.76;65.16;164198.66;5064781;28;20106;-68
2022/02/25 02:04:26;;;;;;;1999.90;999.90;;;;;;;6.75;65.40;164195.94;5059727;28;20057;-68
2022/02/25 02:06:52;;;;;;;1999.90;999.90;;;;;;;6.82;65.61;164215.19;5057220;28;20458;-68
2022/02/25 02:09:19;;;;;;;1999.90;999.90;;;;;;;6.74;65.81;164193.19;5057659;28;20226;-68
2022/02/25 02:11:47;;;;;;;1999.90;999.90;;;;;;;6.79;65.91;164208.31;5062616;28;20389;-68
2022/02/25 02:14:17;;;;;;;1999.90;999.90;;;;;;;6.72;66.07;164187.72;5061353;28;20471;-67
2022/02/25 02:16:45;;;;;;;1999.90;999.90;;;;;;;6.69;65.81;164182.19;5058151;28;20055;-67
2022/02/25 02:19:12;;;;;;;1999.90;999.90;;;;;;;6.83;65.73;164219.31;5058240;28;20044;-67
2022/02/25 02:21:41;;;;;;;1999.90;999.90;;;;;;;7.00;65.36;164263.28;5062233;28;20108;-67
2022/02/25 02:24:08;;;;;;;1999.90;999.90;;;;;;;6.61;66.59;164160.22;5060506;28;20068;-67
2022/02/25 02:26:35;;;;;;;1999.90;999.90;;;;;;;6.78;66.09;164204.19;5061614;28;20080;-67
2022/02/25 02:29:01;;;;;;;1999.90;999.90;;;;;;;6.83;66.18;164217.91;5058913;28;20454;-67
2022/02/25 02:31:28;;;;;;;1999.90;999.90;;;;;;;7.19;64.65;164314.06;5065234;28;20083;-67
2022/02/25 02:33:57;;;;;;;1999.90;999.90;;;;;;;6.81;66.15;164212.44;5069087;28;20469;-67
2022/02/25 02:36:23;;;;;;;1999.90;999.90;;;;;;;6.83;66.08;164219.31;5063108;28;20083;-67
2022/02/25 02:38:50;;;;;;;1999.90;999.90;;;;;;;6.91;66.36;164239.91;5058329;28;20046;-67
2022/02/25 02:41:17;;;;;;;1999.90;999.90;;;;;;;6.69;66.63;164182.19;5055371;28;20078;-67
2022/02/25 02:43:44;;;;;;;1999.90;999.90;;;;;;;6.60;67.29;164156.13;5057819;28;20052;-67
2022/02/25 02:46:12;;;;;;;1999.90;999.90;;;;;;;6.61;67.07;164160.22;5061976;28;20048;-67
2022/02/25 02:48:39;;;;;;;1999.90;999.90;;;;;;;6.58;67.47;164152.00;5057759;28;20436;-67
2022/02/25 02:51:07;;;;;;;1999.90;999.90;;;;;;;6.44;68.23;164113.50;5056860;28;20087;-67
2022/02/25 02:53:33;;;;;;;1999.90;999.90;;;;;;;6.43;68.35;164112.16;5043869;28;20391;-67
2022/02/25 02:56:01;;;;;;;1999.90;999.90;;;;;;;6.41;68.37;164105.28;5060654;28;20082;-67
2022/02/25 02:58:27;;;;;;;1999.90;999.90;;;;;;;6.57;67.74;164149.22;5057541;28;20107;-67
2022/02/25 03:00:54;;;;;;;1999.90;999.90;;;;;;;6.37;68.45;164095.63;5053391;28;20083;-67
2022/02/25 03:03:21;;;;;;;1999.90;999.90;;;;;;;6.34;68.24;164088.81;5063336;28;20170;-67
2022/02/25 03:05:49;;;;;;;1999.90;999.90;;;;;;;6.31;68.70;164080.56;5053908;28;20140;-67
2022/02/25 03:08:16;;;;;;;1999.90;999.90;;;;;;;6.55;68.14;164143.75;5057290;28;20064;-68
2022/02/25 03:10:43;;;;;;;1999.90;999.90;;;;;;;6.53;68.07;164138.22;5056864;28;20099;-68
2022/02/25 03:13:12;;;;;;;1999.90;999.90;;;;;;;6.36;69.11;164092.94;5059259;28;20052;-68
2022/02/25 03:15:39;;;;;;;1999.90;999.90;;;;;;;6.34;68.87;164087.41;5064803;28;20056;-68
2022/02/25 03:18:06;;;;;;;1999.90;999.90;;;;;;;6.27;69.53;164069.56;5054069;28;20072;-68
2022/02/25 03:20:33;;;;;;;1999.90;999.90;;;;;;;6.54;68.81;164139.63;5057792;28;20044;-67
2022/02/25 03:23:00;;;;;;;1999.90;999.90;;;;;;;6.51;69.02;164134.09;5063218;28;20504;-68
2022/02/25 03:25:28;;;;;;;1999.90;999.90;;;;;;;6.34;69.85;164088.81;5063603;28;20070;-67
2022/02/25 03:27:55;;;;;;;1999.90;999.90;;;;;;;6.45;69.41;164116.28;5060791;28;20079;-67
2022/02/25 03:30:22;;;;;;;1999.90;999.90;;;;;;;6.28;70.33;164072.34;5054293;28;20068;-68
2022/02/25 03:32:51;;;;;;;1999.90;999.90;;;;;;;6.41;70.39;164105.28;5057634;28;20045;-68
2022/02/25 03:35:18;;;;;;;1999.90;999.90;;;;;;;6.44;70.44;164114.88;5053889;28;20321;-68
2022/02/25 03:37:45;;;;;;;1999.90;999.90;;;;;;;6.50;70.33;164131.34;5057141;28;20044;-68
2022/02/25 03:40:12;;;;;;;1999.90;999.90;;;;;;;6.39;70.95;164101.16;5056263;28;20403;-68
2022/02/25 03:42:39;;;;;;;1999.90;999.90;;;;;;;6.38;71.08;164098.41;5057857;28;20080;-68
2022/02/25 03:45:07;;;;;;;1999.90;999.90;;;;;;;6.21;71.46;164053.09;5061966;28;20518;-68
2022/02/25 03:47:34;;;;;;;1999.90;999.90;;;;;;;6.18;71.75;164044.88;5062121;28;20118;-68
2022/02/25 03:50:03;;;;;;;1999.90;999.90;;;;;;;6.29;71.63;164075.03;5055161;28;20064;-68
2022/02/25 03:52:30;;;;;;;1999.90;999.90;;;;;;;6.38;71.79;164097.03;5051706;28;20076;-67
2022/02/25 03:54:56;;;;;;;1999.90;999.90;;;;;;;6.40;71.39;164102.53;5064686;28;20085;-68
2022/02/25 03:57:23;;;;;;;1999.90;999.90;;;;;;;5.91;73.27;163973.41;5061704;28;20056;-68
2022/02/25 03:59:49;;;;;;;1999.90;999.90;;;;;;;6.11;72.80;164025.63;5055874;28;20064;-68
2022/02/25 04:02:17;;;;;;;1999.90;999.90;;;;;;;6.19;72.56;164047.59;5059895;28;20060;-67
2022/02/25 04:04:43;;;;;;;1999.90;999.90;;;;;;;6.26;72.77;164066.81;5057355;28;20052;-68
2022/02/25 04:07:10;;;;;;;1999.90;999.90;;;;;;;6.35;72.58;164091.53;5063100;28;20056;-68
2022/02/25 04:09:36;;;;;;;1999.90;999.90;;;;;;;6.60;71.88;164156.13;5057994;28;20122;-67
2022/02/25 04:12:03;;;;;;;1999.90;999.90;;;;;;;6.41;72.73;164106.63;5050181;28;20044;-68
2022/02/25 04:14:30;;;;;;;1999.90;999.90;;;;;;;6.48;73.16;164124.50;5064687;28;20345;-68
2022/02/25 04:16:57;;;;;;;1999.90;999.90;;;;;;;6.46;73.17;164119.00;5063300;28;20331;-68
2022/02/25 04:19:23;;;;;;;1999.90;999.90;;;;;;;6.30;73.82;164077.81;5057080;28;20047;-67
2022/02/25 04:21:50;;;;;;;1999.90;999.90;;;;;;;6.27;74.56;164068.22;5055192;28;20107;-67
2022/02/25 04:24:17;;;;;;;1999.90;999.90;;;;;;;6.42;74.62;164108.03;5060124;28;20338;-67
2022/02/25 04:26:44;;;;;;;1999.90;999.90;;;;;;;6.79;73.92;164208.31;5059722;28;20083;-67
2022/02/25 04:29:11;;;;;;;1999.90;999.90;;;;;;;6.89;73.68;164234.38;5055135;28;20044;-67
2022/02/25 04:31:37;;;;;;;1999.90;999.90;;;;;;;6.94;73.64;164248.16;5050718;28;20099;-67
2022/02/25 04:34:04;;;;;;;1999.90;999.90;;;;;;;6.89;74.39;164234.38;5063784;28;20044;-68
2022/02/25 04:36:36;;;;;;;1999.90;999.90;;;;;;;6.75;75.37;164195.94;5063148;28;20064;-68
2022/02/25 04:39:05;;;;;;;1999.90;999.90;;;;;;;6.93;75.22;164245.38;5049654;28;20049;-68
2022/02/25 04:41:34;;;;;;;1999.90;999.90;;;;;;;6.72;75.64;164189.06;5054608;28;20049;-68
2022/02/25 04:44:01;;;;;;;1999.90;999.90;;;;;;;6.85;75.43;164224.78;5061234;28;20084;-67
2022/02/25 04:46:28;;;;;;;1999.90;999.90;;;;;;;6.82;75.50;164215.19;5059487;28;20080;-67
2022/02/25 04:48:55;;;;;;;1999.90;999.90;;;;;;;6.95;74.86;164250.91;5059134;28;20051;-68
2022/02/25 04:51:21;;;;;;;1999.90;999.90;;;;;;;6.95;75.36;164250.91;5057110;28;20095;-68
2022/02/25 04:53:49;;;;;;;1999.90;999.90;;;;;;;6.93;75.04;164245.38;5061217;28;20106;-68
2022/02/25 04:56:16;;;;;;;1999.90;999.90;;;;;;;7.80;72.53;164476.25;5064361;28;20049;-68
2022/02/25 04:58:43;;;;;;;1999.90;999.90;;;;;;;7.89;71.63;164501.00;5058575;28;20044;-68
2022/02/25 05:01:09;;;;;;;1999.90;999.90;;;;;;;7.88;71.50;164498.28;5059800;28;20374;-68
2022/02/25 05:03:39;;;;;;;1999.90;999.90;;;;;;;7.47;73.07;164388.28;5063727;28;20048;-68
2022/02/25 05:06:05;;;;;;;1999.90;999.90;;;;;;;7.65;73.24;164436.38;5063175;28;20110;-67
2022/02/25 05:08:32;;;;;;;1999.90;999.90;;;;;;;7.30;74.00;164342.97;5060846;28;20145;-67
2022/02/25 05:10:59;;;;;;;1999.90;999.90;;;;;;;7.32;74.25;164349.78;5063635;28;20393;-67
2022/02/25 05:13:25;;;;;;;1999.90;999.90;;;;;;;7.29;74.46;164341.56;5065768;28;20067;-67
2022/02/25 05:21:24;;;;;;;1999.90;999.90;;;;;;;6.35;78.97;164091.53;5058861;28;20060;-67
2022/02/25 05:23:50;;;;;;;1999.90;999.90;;;;;;;6.55;79.33;164142.34;5060922;28;20665;-67
2022/02/25 05:26:17;;;;;;;1999.90;999.90;;;;;;;6.60;78.66;164156.13;5065136;28;20078;-67
2022/02/25 05:28:46;;;;;;;1999.90;999.90;;;;;;;6.62;79.46;164162.94;5059818;28;20075;-68
2022/02/25 05:31:14;;;;;;;1999.90;999.90;;;;;;;6.54;80.52;164139.63;5059166;28;20436;-67
2022/02/25 05:33:41;;;;;;;1999.90;999.90;;;;;;;5.82;86.46;163948.66;5063259;28;20052;-67
2022/02/25 05:36:08;;;;;;;1999.90;999.90;;;;;;;5.49;90.94;163860.81;5063187;28;20536;-67
2022/02/25 05:38:34;;;;;;;1999.90;999.90;;;;;;;5.57;92.17;163882.81;5059153;28;20091;-66
2022/02/25 05:41:02;;;;;;;1999.90;999.90;;;;;;;4.97;95.32;163720.84;5056444;28;20095;-67
2022/02/25 05:43:28;;;;;;;1999.90;999.90;;;;;;;4.92;97.15;163709.88;5062407;28;20069;-67
2022/02/25 05:45:54;;;;;;;1999.90;999.90;;;;;;;4.45;98.52;163583.72;5057241;28;20110;-67
2022/02/25 05:48:21;;;;;;;1999.90;999.90;;;;;;;4.35;99.79;163556.28;5053143;28;20053;-67
2022/02/25 05:50:48;;;;;;;1999.90;999.90;;;;;;;4.47;100.00;163587.81;5054612;28;20044;-67
2022/02/25 05:53:14;;;;;;;1999.90;999.90;;;;;;;4.13;100.00;163498.66;5061543;28;20149;-68
2022/02/25 05:55:41;;;;;;;1999.90;999.90;;;;;;;3.96;100.00;163452.03;5051851;28;20045;-67
2022/02/25 05:58:07;;;;;;;1999.90;999.90;;;;;;;4.11;100.00;163493.19;5052491;28;20080;-67
2022/02/25 06:00:36;;;;;;;1999.90;999.90;;;;;;;4.14;100.00;163501.41;5057108;28;20196;-67
2022/02/25 06:03:03;;;;;;;1999.90;999.90;;;;;;;4.18;100.00;163512.41;5052507;28;20063;-67
2022/02/25 06:05:30;;;;;;;1999.90;999.90;;;;;;;4.53;100.00;163604.28;5058819;28;20040;-67
2022/02/25 06:07:59;;;;;;;1999.90;999.90;;;;;;;4.94;100.00;163713.97;5056536;28;20049;-67
2022/02/25 06:10:29;;;;;;;1999.90;999.90;;;;;;;4.48;100.00;163591.94;5057454;28;20120;-67
2022/02/25 06:12:57;;;;;;;1999.90;999.90;;;;;;;4.40;100.00;163569.97;5062696;28;20051;-67
2022/02/25 06:15:24;;;;;;;1999.90;999.90;;;;;;;4.63;100.00;163631.72;5064172;28;20049;-67
2022/02/25 06:17:51;;;;;;;1999.90;999.90;;;;;;;4.50;100.00;163596.03;5053952;28;20111;-67
2022/02/25 06:20:19;;;;;;;1999.90;999.90;;;;;;;4.63;100.00;163630.31;5056468;28;20085;-68
2022/02/25 06:22:47;;;;;;;1999.90;999.90;;;;;;;4.15;100.00;163504.13;5058192;28;20106;-67
2022/02/25 06:25:14;;;;;;;1999.90;999.90;;;;;;;4.25;100.00;163530.19;5061699;28;20093;-67
2022/02/25 06:27:42;;;;;;;1999.90;999.90;;;;;;;4.52;100.00;163602.88;5055968;28;20048;-67
2022/02/25 06:30:11;;;;;;;1999.90;999.90;;;;;;;4.73;100.00;163657.75;5058962;28;20087;-67
2022/02/25 06:32:38;;;;;;;1999.90;999.90;;;;;;;4.49;100.00;163593.28;5058677;28;20335;-67
2022/02/25 06:35:05;;;;;;;1999.90;999.90;;;;;;;4.53;100.00;163605.63;5063049;28;20393;-67
2022/02/25 06:37:32;;;;;;;1999.90;999.90;;;;;;;4.19;100.00;163515.09;5062104;28;20123;-67
2022/02/25 06:39:59;;;;;;;1999.90;999.90;;;;;;;4.20;100.00;163517.84;5055327;28;20437;-68
2022/02/25 06:42:26;;;;;;;1999.90;999.90;;;;;;;4.10;100.00;163490.44;5057750;28;20252;-69
2022/02/25 06:44:53;;;;;;;1999.90;999.90;;;;;;;4.52;100.00;163601.50;5056255;28;20071;-70
2022/02/25 06:47:19;;;;;;;1999.90;999.90;;;;;;;4.70;100.00;163649.50;5065471;28;20049;-69
2022/02/25 06:49:46;;;;;;;1999.90;999.90;;;;;;;4.64;99.67;163633.06;5056552;28;20361;-69
2022/02/25 06:52:12;;;;;;;1999.90;999.90;;;;;;;4.52;100.00;163602.88;5043909;28;20049;-69
2022/02/25 06:54:40;;;;;;;1999.90;999.90;;;;;;;4.63;100.00;163631.72;5059703;28;20056;-69
2022/02/25 06:57:09;;;;;;;1999.90;999.90;;;;;;;4.94;99.15;163715.38;5064463;28;20059;-68
2022/02/25 06:59:35;;;;;;;1999.90;999.90;;;;;;;5.17;98.13;163775.75;5059823;28;20088;-68
2022/02/25 07:02:02;;;;;;;1999.90;999.90;;;;;;;5.06;98.50;163746.94;5059395;28;20095;-68
2022/02/25 07:04:29;;;;;;;1999.90;999.90;;;;;;;5.21;97.94;163785.34;5058826;28;20053;-67
2022/02/25 07:06:55;;;;;;;1999.90;999.90;;;;;;;5.26;97.82;163800.44;5056638;28;20098;-67
2022/02/25 07:09:22;;;;;;;1999.90;999.90;;;;;;;5.27;97.48;163801.84;5056428;28;20675;-67
2022/02/25 07:11:49;;;;;;;1999.90;999.90;;;;;;;5.46;97.10;163852.59;5058459;28;20083;-67
2022/02/25 07:14:16;;;;;;;1999.90;999.90;;;;;;;5.50;96.32;163862.22;5042629;28;20056;-67
2022/02/25 07:16:42;;;;;;;1999.90;999.90;;;;;;;5.58;96.56;163885.56;5062826;28;20075;-67
2022/02/25 07:19:09;;;;;;;1999.90;999.90;;;;;;;5.08;97.87;163751.06;5061370;28;20048;-66
2022/02/25 07:21:36;;;;;;;1999.90;999.90;;;;;;;4.34;100.00;163553.53;5057440;28;20118;-66
2022/02/25 07:24:03;;;;;;;1999.90;999.90;;;;;;;5.01;100.00;163731.84;5058930;28;20049;-67
2022/02/25 07:26:35;;;;;;;1999.90;999.90;;;;;;;5.32;98.28;163814.19;5054004;28;20061;-68
2022/02/25 07:29:03;;;;;;;1999.90;999.90;;;;;;;5.26;97.36;163800.44;5053660;28;20080;-68
2022/02/25 07:31:29;;;;;;;1999.90;999.90;;;;;;;5.04;99.51;163740.06;5054786;28;20041;-68
2022/02/25 07:34:01;;;;;;;1999.90;999.90;;;;;;;5.40;97.86;163837.47;5058941;28;20430;-68
2022/02/25 07:36:28;;;;;;;1999.90;999.90;;;;;;;5.51;96.85;163866.34;5058668;28;20053;-66
2022/02/25 07:38:54;;;;;;;1999.90;999.90;;;;;;;5.52;96.88;163869.06;5061354;28;20088;-66
2022/02/25 07:41:21;;;;;;;1999.90;999.90;;;;;;;5.43;97.41;163845.75;5057865;28;20072;-66
2022/02/25 07:43:48;;;;;;;1999.90;999.90;;;;;;;5.34;97.05;163819.66;5060130;28;20046;-66
2022/02/25 07:46:15;;;;;;;1999.90;999.90;;;;;;;5.37;97.76;163827.88;5053272;28;20568;-66
2022/02/25 07:48:41;;;;;;;1999.90;999.90;;;;;;;5.60;97.07;163891.03;5062152;28;20465;-66
2022/02/25 07:51:08;;;;;;;1999.90;999.90;;;;;;;5.68;96.69;163911.63;5057580;28;20427;-66
2022/02/25 07:53:35;;;;;;;1999.90;999.90;;;;;;;5.57;96.98;163881.44;5059452;28;20422;-67
2022/02/25 07:56:02;;;;;;;1999.90;999.90;;;;;;;5.25;98.20;163796.31;5062955;28;20048;-67
2022/02/25 07:58:29;;;;;;;1999.90;999.90;;;;;;;5.23;98.96;163790.84;5062510;28;20582;-67
2022/02/25 08:00:56;;;;;;;1999.90;999.90;;;;;;;5.61;97.83;163893.78;5057710;28;20076;-67
2022/02/25 08:03:23;;;;;;;1999.90;999.90;;;;;;;5.53;97.89;163871.81;5055909;28;20052;-67
2022/02/25 08:05:49;;;;;;;1999.90;999.90;;;;;;;5.54;97.90;163873.16;5062212;28;20066;-67
2022/02/25 08:08:16;;;;;;;1999.90;999.90;;;;;;;5.70;97.46;163917.13;5059557;28;20068;-66
2022/02/25 08:10:42;;;;;;;1999.90;999.90;;;;;;;5.04;99.04;163740.06;5055668;28;20077;-66
2022/02/25 08:13:09;;;;;;;1999.90;999.90;;;;;;;5.10;100.00;163757.88;5057126;28;20045;-66
2022/02/25 08:15:36;;;;;;;1999.90;999.90;;;;;;;4.46;100.00;163586.41;5062111;28;20076;-66
2022/02/25 08:18:05;;;;;;;1999.90;999.90;;;;;;;4.23;100.00;163526.09;5056935;28;20345;-66
2022/02/25 08:20:33;;;;;;;1999.90;999.90;;;;;;;3.91;100.00;163439.69;5057965;28;20089;-66
2022/02/25 08:23:01;;;;;;;1999.90;999.90;;;;;;;4.14;100.00;163501.41;5054811;28;20110;-66
2022/02/25 08:25:29;;;;;;;1999.90;999.90;;;;;;;4.49;100.00;163593.28;5060604;28;20052;-66
2022/02/25 08:27:56;;;;;;;1999.90;999.90;;;;;;;4.67;100.00;163641.28;5058704;28;20044;-66
2022/02/25 08:30:23;;;;;;;1999.90;999.90;;;;;;;4.13;100.00;163498.66;5057510;28;20053;-66
2022/02/25 08:32:50;;;;;;;1999.90;999.90;;;;;;;3.84;100.00;163420.50;5057050;28;20087;-67
2022/02/25 08:35:18;;;;;;;1999.90;999.90;;;;;;;4.52;100.00;163602.88;5059396;28;20201;-66
2022/02/25 08:37:46;;;;;;;1999.90;999.90;;;;;;;4.34;100.00;163554.88;5056211;28;20044;-66
2022/02/25 08:40:14;;;;;;;1999.90;999.90;;;;;;;4.75;100.00;163663.25;5052717;28;20364;-66
2022/02/25 08:42:41;;;;;;;1999.90;999.90;;;;;;;4.67;100.00;163642.66;5039669;28;20098;-66
2022/02/25 08:45:09;;;;;;;1999.90;999.90;;;;;;;4.62;99.40;163627.59;5059065;28;20056;-67
2022/02/25 08:47:38;;;;;;;1999.90;999.90;;;;;;;5.12;98.49;163762.00;5065033;28;20056;-67
2022/02/25 08:50:05;;;;;;;1999.90;999.90;;;;;;;5.47;96.23;163855.34;5063033;28;20111;-67
2022/02/25 08:52:31;;;;;;;1999.90;999.90;;;;;;;5.35;96.18;163822.44;5057869;28;20101;-67
2022/02/25 08:54:58;;;;;;;1999.90;999.90;;;;;;;5.86;94.48;163959.66;5058811;28;20141;-67
2022/02/25 08:57:25;;;;;;;1999.90;999.90;;;;;;;5.35;91.94;163822.44;5055844;28;20337;-68
2022/02/25 08:59:51;;;;;;;1999.90;999.90;;;;;;;4.74;93.34;163660.50;5063513;28;20096;-67
2022/02/25 09:02:18;;;;;;;1999.90;999.90;;;;;;;5.49;91.67;163859.47;5055164;28;20115;-67
2022/02/25 09:04:44;;;;;;;1999.90;999.90;;;;;;;5.15;90.15;163770.28;5058167;28;20095;-67
2022/02/25 09:07:11;;;;;;;1999.90;999.90;;;;;;;5.45;89.94;163849.88;5056698;28;20080;-68
2022/02/25 09:09:38;;;;;;;1999.90;999.90;;;;;;;5.05;90.09;163742.84;5063466;28;20072;-66
2022/02/25 09:12:05;;;;;;;1999.90;999.90;;;;;;;5.80;88.02;163943.19;5058452;28;20102;-65
2022/02/25 09:14:32;;;;;;;1999.90;999.90;;;;;;;5.24;86.80;163794.97;5058702;28;20061;-65
2022/02/25 09:16:58;;;;;;;1999.90;999.90;;;;;;;5.56;86.06;163878.69;5058497;28;20084;-65
2022/02/25 09:19:24;;;;;;;1999.90;999.90;;;;;;;5.89;85.01;163966.53;5057709;28;20084;-66
2022/02/25 09:21:51;;;;;;;1999.90;999.90;;;;;;;6.07;83.57;164014.63;5056515;28;20041;-66
2022/02/25 09:24:19;;;;;;;1999.90;999.90;;;;;;;6.46;84.44;164119.00;5058092;28;20099;-66
2022/02/25 09:26:46;;;;;;;1999.90;999.90;;;;;;;6.04;81.78;164006.41;5058633;28;20100;-65
2022/02/25 09:29:13;;;;;;;1999.90;999.90;;;;;;;6.26;82.63;164066.81;5065656;28;20105;-66
2022/02/25 09:31:40;;;;;;;1999.90;999.90;;;;;;;5.98;81.02;163992.69;5060118;28;20044;-66
2022/02/25 09:34:07;;;;;;;1999.90;999.90;;;;;;;5.37;83.33;163829.25;5057884;28;20446;-65
2022/02/25 09:36:34;;;;;;;1999.90;999.90;;;;;;;5.99;80.35;163994.06;5061921;28;20441;-66
2022/02/25 09:39:00;;;;;;;1999.90;999.90;;;;;;;6.37;78.35;164094.28;5055690;28;20134;-66
2022/02/25 09:41:27;;;;;;;1999.90;999.90;;;;;;;6.10;77.36;164024.28;5054297;28;20095;-66
2022/02/25 09:43:54;;;;;;;1999.90;999.90;;;;;;;6.40;75.08;164102.53;5056781;28;20095;-66
2022/02/25 09:46:21;;;;;;;1999.90;999.90;;;;;;;6.69;75.71;164182.19;5065886;28;20434;-67
2022/02/25 09:48:48;;;;;;;1999.90;999.90;;;;;;;6.93;75.78;164245.38;5063136;28;20098;-67
2022/02/25 09:51:14;;;;;;;1999.90;999.90;;;;;;;6.81;75.15;164212.44;5060419;28;20076;-66
2022/02/25 09:53:41;;;;;;;1999.90;999.90;;;;;;;5.88;76.57;163965.19;5059347;28;20049;-67
2022/02/25 09:56:07;;;;;;;1999.90;999.90;;;;;;;5.89;76.14;163967.88;5062223;28;20115;-67
2022/02/25 09:58:34;;;;;;;1999.90;999.90;;;;;;;5.75;75.85;163930.84;5064298;28;20052;-67
2022/02/25 10:01:00;;;;;;;1999.90;999.90;;;;;;;5.58;75.45;163884.16;5059692;28;20152;-66
2022/02/25 10:03:30;;;;;;;1999.90;999.90;;;;;;;5.54;76.74;163873.16;5058433;28;20045;-68
2022/02/25 10:06:05;;;;;;;1999.90;999.90;;;;;;;6.02;75.07;164002.28;5052153;28;20361;-67
2022/02/25 10:08:31;;;;;;;1999.90;999.90;;;;;;;6.01;75.92;163998.16;5054875;28;20068;-68
2022/02/25 10:10:59;;;;;;;1999.90;999.90;;;;;;;6.75;75.04;164195.94;5064562;28;20118;-65
2022/02/25 10:13:28;;;;;;;1999.90;999.90;;;;;;;6.61;74.70;164158.81;5061254;28;20055;-66
2022/02/25 10:16:14;;;;;;;1999.90;999.90;;;;;;;6.26;74.17;164066.81;5059903;28;20053;-66
2022/02/25 10:18:43;;;;;;;1999.90;999.90;;;;;;;6.32;75.74;164081.94;5062972;28;20139;-66
2022/02/25 10:21:12;;;;;;;1999.90;999.90;;;;;;;6.27;76.56;164068.22;5059760;28;20119;-66
2022/02/25 10:23:45;;;;;;;1999.90;999.90;;;;;;;6.59;76.31;164153.34;5063279;28;20098;-66
2022/02/25 10:26:11;;;;;;;1999.90;999.90;;;;;;;6.65;74.26;164171.19;5057954;28;20064;-66
2022/02/25 10:28:40;;;;;;;1999.90;999.90;;;;;;;6.44;73.12;164114.88;5062520;28;20469;-66
2022/02/25 10:31:23;;;;;;;1999.90;999.90;;;;;;;5.91;73.85;163973.41;5064928;28;20076;-66
2022/02/25 10:34:00;;;;;;;1999.90;999.90;;;;;;;6.56;74.79;164146.47;5063222;28;20267;-66
2022/02/25 10:36:34;;;;;;;1999.90;999.90;;;;;;;7.01;71.03;164267.38;5060627;28;20102;-67
2022/02/25 10:39:00;;;;;;;1999.90;999.90;;;;;;;7.24;73.03;164327.84;5057420;28;20139;-67
2022/02/25 10:41:27;;;;;;;1999.90;999.90;;;;;;;8.24;68.42;164594.50;5058142;28;20410;-67
2022/02/25 10:43:53;;;;;;;1999.90;999.90;;;;;;;8.55;66.10;164677.09;5062001;28;20041;-67
2022/02/25 10:46:22;;;;;;;1999.90;999.90;;;;;;;8.71;63.83;164721.09;5061200;28;20044;-67
2022/02/25 10:48:49;;;;;;;1999.90;999.90;;;;;;;8.89;64.28;164767.88;5060188;28;20058;-67
2022/02/25 10:51:23;;;;;;;1999.90;999.90;;;;;;;8.53;68.33;164671.56;5058623;28;20142;-67
2022/02/25 10:53:54;;;;;;;1999.90;999.90;;;;;;;7.76;70.44;164466.66;5064572;28;20128;-67
2022/02/25 10:56:21;;;;;;;1999.90;999.90;;;;;;;7.76;65.35;164466.66;5064322;28;20326;-67
2022/02/25 10:58:53;;;;;;;1999.90;999.90;;;;;;;7.79;65.22;164473.53;5052961;28;20041;-67